• Join FlightAware (Why Join?)
  • Login
  • US Flag 
01:59AM EDT


 

Airport Tracker/Info


-or-


 

Live Flight TrackerFlight Track Log ✈ CWC409 ✈ 20-Jun-2013 ✈ KMIA - SBEG / MAO

Flight Track Log - Related Links

Times and Time Zones

All times are in EDT time to prevent confusion due to time zone crossing. See the CWC409 flight status page for this flight to view local times or setup timezone preferences in your user account.

Time Position Orientation Groundspeed Altitude Reporting Facility
EDT Latitude Longitude Course Direction KTS MPH feet Rate Location/Type
03:39PM 25.7983 -80.2631 115° Southeast 175 201 900  Level Miami Center
03:40PM 25.7728 -80.2022 115° Southeast 188 216 3,100 1,500 Climbing Miami Center
03:41PM 25.7469 -80.1369 114° Southeast 254 292 4,300 1,860 Climbing Miami Center
03:42PM 25.7225 -80.0117 102° East 301 346 7,800 2,460 Climbing Miami Center
03:43PM 25.7036 -79.9192 103° East 301 346 10,500 2,160 Climbing Miami Center
03:44PM 25.6764 -79.8169 106° East 317 365 12,200 1,560 Climbing Miami Center
03:45PM 25.6497 -79.6942 104° East 359 413 13,700 1,980 Climbing Miami Center
03:46PM 25.6186 -79.5644 105° East 407 468 16,200 2,340 Climbing Miami Center
03:47PM 25.5897 -79.4278 103° East 431 496 18,400 2,100 Climbing Miami Center
03:48PM 25.5503 -79.2864 107° East 456 525 20,500 1,920 Climbing Miami Center
03:49PM 25.4708 -79.1653 126° Southeast 467 537 22,300 1,680 Climbing Miami Center
03:50PM 25.3767 -79.0461 131° Southeast 492 566 23,900 1,800 Climbing Miami Center
03:51PM 25.2778 -78.9342 134° Southeast 502 578 25,900 2,100 Climbing Miami Center
03:52PM 25.1939 -78.8156 128° Southeast 502 578 28,100 1,860 Climbing Miami Center
03:53PM 25.1014 -78.6992 131° Southeast 502 578 29,700 1,800 Climbing Miami Center
03:54PM 25.0106 -78.5856 131° Southeast 496 571 31,700 1,560 Climbing Miami Center
03:55PM 24.9200 -78.4697 131° Southeast 496 571 32,900 600 Climbing Miami Center
03:56PM 24.8272 -78.3586 133° Southeast 491 565 33,000  Climbing Miami Center
03:57PM 24.7364 -78.2456 131° Southeast 491 565 33,000  Level Miami Center
03:58PM 24.6475 -78.1325 131° Southeast 491 565 33,000  Level Miami Center
03:59PM 24.5564 -78.0172 131° Southeast 491 565 33,000  Level Miami Center
04:00PM 24.4633 -77.9044 132° Southeast 491 565 33,000  Level Miami Center
04:01PM 24.3719 -77.7897 131° Southeast 491 565 33,000  Level Miami Center
04:02PM 24.2828 -77.6750 130° Southeast 491 565 33,000  Level Miami Center
04:03PM 24.1936 -77.5650 132° Southeast 491 565 33,000  Level Miami Center
04:04PM 24.1019 -77.4531 132° Southeast 491 565 33,000  Level Miami Center
04:05PM 24.0125 -77.3389 131° Southeast 491 565 33,000  Level Miami Center
04:06PM 23.9231 -77.2317 132° Southeast 486 559 33,000  Level Miami Center
04:07PM 23.8333 -77.1200 131° Southeast 491 565 33,100  Climbing Miami Center
04:08PM 23.7394 -77.0086 133° Southeast 491 565 33,000 -60 Descending Miami Center
04:09PM 23.6475 -76.8997 133° Southeast 491 565 33,000  Level Miami Center
04:10PM 23.5597 -76.7886 131° Southeast 491 565 33,000  Level Miami Center
04:11PM 23.4678 -76.6800 133° Southeast 491 565 33,000  Level Miami Center
04:12PM 23.3778 -76.5692 131° Southeast 486 559 33,000  Level Miami Center
04:13PM 23.2856 -76.4586 132° Southeast 493 567 33,000  Level Miami Center
04:14PM 23.1933 -76.3481 132° Southeast 493 567 33,000  Level Miami Center
04:15PM 23.1031 -76.2378 132° Southeast 488 562 33,000  Level Miami Center
04:16PM 23.0106 -76.1300 133° Southeast 488 562 33,000  Level Miami Center
04:17PM 22.9222 -76.0197 131° Southeast 488 562 33,000  Level Miami Center
04:18PM 22.8381 -75.9211 133° Southeast 488 562 33,000 -300 Level Miami Center
04:19PM 22.7475 -75.8139 132° Southeast 488 562 32,400 -780 Descending Miami Center
04:20PM 22.6547 -75.7042 132° Southeast 488 562 31,500 -960 Descending Miami Center
04:21PM 22.5642 -75.5947 132° Southeast 488 562 30,500 -1,020 Descending Miami Center
04:22PM 22.4711 -75.4856 133° Southeast 488 562 29,500 -780 Descending Miami Center
04:23PM 22.3803 -75.3764 132° Southeast 488 562 29,000 -300 Descending Miami Center
04:24PM 22.2853 -75.2675 133° Southeast 493 567 29,000  Level Miami Center
04:25PM 22.1836 -75.1500 133° Southeast 493 567 29,000  Level Miami Center
04:26PM 22.0883 -75.0392 133° Southeast 493 567 29,000  Level Miami Center
04:27PM 21.9828 -74.9422 140° Southeast 493 567 29,000  Level Miami Center
04:28PM 21.8769 -74.8406 138° Southeast 498 573 29,000  Level Miami Center
04:29PM 21.7711 -74.7394 138° Southeast 503 579 29,000  Level Miami Center
04:30PM 21.6800 -74.6472 137° Southeast 508 585 29,000  Level Miami Center
04:31PM 21.5742 -74.5483 139° Southeast 508 585 29,000  Level Miami Center
04:32PM 21.4703 -74.4497 139° Southeast 503 579 29,000 -60 Level Miami Center
04:33PM 21.3622 -74.3492 139° Southeast 503 579 28,900  Descending Miami Center
04:34PM 21.2564 -74.2533 140° Southeast 503 579 29,000  Climbing Miami Center
04:36PM 21.1503 -74.1528 139° Southeast 503 579 29,000  Level Miami Center
04:37PM 21.0292 -74.0375 138° Southeast 493 567 29,000 -60 Level Miami Center
04:38PM 20.9231 -73.9419 140° Southeast 488 562 28,900  Descending Miami Center
04:39PM 20.8167 -73.8422 139° Southeast 494 568 29,000  Climbing Miami Center
04:40PM 20.7147 -73.7447 138° Southeast 494 568 29,000 -60 Level Miami Center
04:41PM 20.6083 -73.6472 139° Southeast 494 568 28,900 -60 Descending Miami Center
04:42PM 20.5019 -73.5503 140° Southeast 494 568 28,900  Level Miami Center
04:43PM 20.3933 -73.4444 138° Southeast 489 563 28,900  Level Miami Center
04:44PM 20.3444 -73.3106 111° Southeast 471 542 29,000  Climbing Miami Center
04:45PM 20.3078 -73.1700 106° East 481 554 29,000  Level Miami Center
04:46PM 20.2667 -73.0275 107° East 489 563 29,000  Level Miami Center
04:48PM 20.0507 -72.8942 150° Southeast  Level Estimated
04:55PM 19.2543 -72.4064 150° Southeast  Level Estimated
04:56PM 19.1404 -72.3371 150° Southeast  Level Estimated
04:57PM 19.0265 -72.2679 150° Southeast  Level Estimated
04:58PM 18.9125 -72.1988 150° Southeast  Level Estimated
04:59PM 18.7986 -72.1298 150° Southeast  Level Estimated
05:00PM 18.6846 -72.0609 150° Southeast  Level Estimated
05:01PM 18.5706 -71.9921 150° Southeast  Level Estimated
05:02PM 18.4565 -71.9233 150° Southeast  Level Estimated
05:03PM 18.3425 -71.8547 150° Southeast  Level Estimated
05:04PM 18.2284 -71.7862 150° Southeast  Level Estimated
05:05PM 18.1143 -71.7177 150° Southeast  Level Estimated
05:06PM 18.0001 -71.6493 150° Southeast  Level Estimated
05:07PM 17.8860 -71.5810 150° Southeast  Level Estimated
05:08PM 17.7718 -71.5128 150° Southeast  Level Estimated
05:09PM 17.6576 -71.4447 150° Southeast  Level Estimated
05:10PM 17.5434 -71.3767 150° Southeast  Level Estimated
05:11PM 17.4291 -71.3088 150° Southeast  Level Estimated
05:12PM 17.3148 -71.2409 150° Southeast  Level Estimated
05:13PM 17.2005 -71.1732 150° Southeast  Level Estimated
05:14PM 17.0862 -71.1055 150° Southeast  Level Estimated
05:15PM 16.9719 -71.0379 151° Southeast  Level Estimated
05:16PM 16.8575 -70.9704 151° Southeast  Level Estimated
05:17PM 16.7431 -70.9029 151° Southeast  Level Estimated
05:18PM 16.6287 -70.8356 151° Southeast  Level Estimated
05:19PM 16.5143 -70.7683 151° Southeast  Level Estimated
05:20PM 16.3998 -70.7011 151° Southeast  Level Estimated
05:21PM 16.2853 -70.6340 151° Southeast  Level Estimated
05:22PM 16.1708 -70.5669 151° Southeast  Level Estimated
05:23PM 16.0563 -70.5000 151° Southeast  Level Estimated
05:24PM 15.9418 -70.4331 151° Southeast  Level Estimated
05:25PM 15.8272 -70.3663 151° Southeast  Level Estimated
05:26PM 15.7126 -70.2995 151° Southeast  Level Estimated
05:27PM 15.5980 -70.2329 151° Southeast  Level Estimated
05:28PM 15.4834 -70.1663 151° Southeast  Level Estimated
05:29PM 15.3688 -70.0998 151° Southeast  Level Estimated
05:30PM 15.2541 -70.0333 151° Southeast  Level Estimated
05:31PM 15.1394 -69.9670 151° Southeast  Level Estimated
05:32PM 15.0247 -69.9007 151° Southeast  Level Estimated
05:33PM 14.9100 -69.8345 151° Southeast  Level Estimated
05:34PM 14.7953 -69.7683 151° Southeast  Level Estimated
05:35PM 14.6805 -69.7022 151° Southeast  Level Estimated
05:36PM 14.5658 -69.6362 151° Southeast  Level Estimated
05:37PM 14.4510 -69.5703 151° Southeast  Level Estimated
05:38PM 14.3362 -69.5044 151° Southeast  Level Estimated
05:39PM 14.2213 -69.4386 151° Southeast  Level Estimated
05:40PM 14.1065 -69.3729 151° Southeast  Level Estimated
05:41PM 13.9916 -69.3072 151° Southeast  Level Estimated
05:42PM 13.8767 -69.2416 151° Southeast  Level Estimated
05:43PM 13.7618 -69.1761 151° Southeast  Level Estimated
05:44PM 13.6469 -69.1106 151° Southeast  Level Estimated
05:45PM 13.5320 -69.0452 151° Southeast  Level Estimated
05:46PM 13.4170 -68.9798 151° Southeast  Level Estimated
05:47PM 13.3021 -68.9145 151° Southeast  Level Estimated
05:48PM 13.1871 -68.8493 151° Southeast  Level Estimated
05:49PM 13.0721 -68.7841 151° Southeast  Level Estimated
05:50PM 12.9571 -68.7190 151° Southeast  Level Estimated
05:51PM 12.8420 -68.6540 151° Southeast  Level Estimated
05:52PM 12.7270 -68.5890 151° Southeast  Level Estimated
05:53PM 12.6119 -68.5241 151° Southeast  Level Estimated
05:54PM 12.4969 -68.4592 151° Southeast  Level Estimated
05:55PM 12.3818 -68.3944 151° Southeast  Level Estimated
05:56PM 12.2666 -68.3296 151° Southeast  Level Estimated
05:57PM 12.1515 -68.2649 151° Southeast  Level Estimated
05:58PM 12.0364 -68.2003 151° Southeast  Level Estimated
05:59PM 11.9212 -68.1357 151° Southeast  Level Estimated
06:00PM 11.8060 -68.0712 151° Southeast  Level Estimated
06:01PM 11.6909 -68.0067 151° Southeast  Level Estimated
06:02PM 11.5757 -67.9423 151° Southeast  Level Estimated
06:03PM 11.4604 -67.8779 151° Southeast  Level Estimated
06:04PM 11.3452 -67.8136 151° Southeast  Level Estimated
06:05PM 11.2300 -67.7493 151° Southeast  Level Estimated
06:06PM 11.1147 -67.6851 151° Southeast  Level Estimated
06:07PM 10.9994 -67.6210 151° Southeast  Level Estimated
06:08PM 10.8842 -67.5568 151° Southeast  Level Estimated
06:09PM 10.7689 -67.4928 151° Southeast  Level Estimated
06:10PM 10.6536 -67.4288 151° Southeast  Level Estimated
06:11PM 10.5382 -67.3648 151° Southeast  Level Estimated
06:12PM 10.4229 -67.3009 151° Southeast  Level Estimated
06:13PM 10.3076 -67.2370 151° Southeast  Level Estimated
06:14PM 10.1922 -67.1732 151° Southeast  Level Estimated
06:15PM 10.0768 -67.1094 151° Southeast  Level Estimated
06:16PM 9.9614 -67.0457 151° Southeast  Level Estimated
06:17PM 9.8460 -66.9820 151° Southeast  Level Estimated
06:18PM 9.7306 -66.9184 151° Southeast  Level Estimated
06:19PM 9.6152 -66.8548 151° Southeast  Level Estimated
06:20PM 9.4998 -66.7912 151° Southeast  Level Estimated
06:21PM 9.3843 -66.7277 152° Southeast  Level Estimated
06:22PM 9.2689 -66.6642 152° Southeast  Level Estimated
06:23PM 9.1534 -66.6008 152° Southeast  Level Estimated
06:24PM 9.0379 -66.5374 152° Southeast  Level Estimated
06:25PM 8.9225 -66.4741 152° Southeast  Level Estimated
06:26PM 8.8069 -66.4107 152° Southeast  Level Estimated
06:27PM 8.6914 -66.3475 152° Southeast  Level Estimated
06:28PM 8.5759 -66.2842 152° Southeast  Level Estimated
06:29PM 8.4604 -66.2210 152° Southeast  Level Estimated
06:30PM 8.3448 -66.1579 152° Southeast  Level Estimated
06:31PM 8.2293 -66.0948 152° Southeast  Level Estimated
06:32PM 8.1137 -66.0317 152° Southeast  Level Estimated
06:33PM 7.9982 -65.9687 152° Southeast  Level Estimated
06:34PM 7.8826 -65.9057 152° Southeast  Level Estimated
06:35PM 7.7670 -65.8427 152° Southeast  Level Estimated
06:36PM 7.6514 -65.7797 152° Southeast  Level Estimated
06:37PM 7.5358 -65.7169 152° Southeast  Level Estimated
06:38PM 7.4202 -65.6540 152° Southeast  Level Estimated
06:39PM 7.3046 -65.5911 152° Southeast  Level Estimated
06:40PM 7.1889 -65.5284 152° Southeast  Level Estimated
06:41PM 7.0733 -65.4656 152° Southeast  Level Estimated
06:42PM 6.9576 -65.4028 152° Southeast  Level Estimated
06:43PM 6.8420 -65.3401 152° Southeast  Level Estimated
06:44PM 6.7263 -65.2775 152° Southeast  Level Estimated
06:45PM 6.6106 -65.2148 152° Southeast  Level Estimated
06:46PM 6.4949 -65.1522 152° Southeast  Level Estimated
06:47PM 6.3793 -65.0896 152° Southeast  Level Estimated
06:48PM 6.2636 -65.0270 152° Southeast  Level Estimated
06:49PM 6.1479 -64.9645 152° Southeast  Level Estimated
06:50PM 6.0321 -64.9020 152° Southeast  Level Estimated
06:51PM 5.9164 -64.8395 152° Southeast  Level Estimated
06:52PM 5.8007 -64.7771 152° Southeast  Level Estimated
06:53PM 5.6850 -64.7146 152° Southeast  Level Estimated
06:54PM 5.5692 -64.6522 152° Southeast  Level Estimated
06:55PM 5.4535 -64.5899 152° Southeast  Level Estimated
06:56PM 5.3377 -64.5275 152° Southeast  Level Estimated
06:57PM 5.2220 -64.4652 152° Southeast  Level Estimated
06:58PM 5.1062 -64.4029 152° Southeast  Level Estimated
06:59PM 4.9904 -64.3406 152° Southeast  Level Estimated
07:00PM 4.8746 -64.2783 152° Southeast  Level Estimated
07:01PM 4.7589 -64.2161 152° Southeast  Level Estimated
07:02PM 4.6431 -64.1538 152° Southeast  Level Estimated
07:03PM 4.5273 -64.0917 152° Southeast  Level Estimated
07:04PM 4.4115 -64.0295 152° Southeast  Level Estimated
07:05PM 4.2957 -63.9673 152° Southeast  Level Estimated
07:06PM 4.1799 -63.9052 152° Southeast  Level Estimated
07:07PM 4.0641 -63.8430 152° Southeast  Level Estimated
07:08PM 3.9482 -63.7809 152° Southeast  Level Estimated
07:09PM 3.8324 -63.7188 152° Southeast  Level Estimated
07:10PM 3.7166 -63.6568 152° Southeast  Level Estimated
07:11PM 3.6008 -63.5947 152° Southeast  Level Estimated
07:12PM 3.4849 -63.5327 152° Southeast  Level Estimated
07:13PM 3.3691 -63.4707 152° Southeast  Level Estimated
07:14PM 3.2532 -63.4086 152° Southeast  Level Estimated
07:15PM 3.1374 -63.3466 152° Southeast  Level Estimated
07:16PM 3.0215 -63.2847 152° Southeast  Level Estimated
07:17PM 2.9057 -63.2227 152° Southeast  Level Estimated
07:18PM 2.7898 -63.1607 152° Southeast  Level Estimated
07:19PM 2.6739 -63.0988 152° Southeast  Level Estimated
07:20PM 2.5581 -63.0369 152° Southeast  Level Estimated
07:21PM 2.4422 -62.9749 152° Southeast  Level Estimated
07:22PM 2.3263 -62.9130 152° Southeast  Level Estimated
07:23PM 2.2105 -62.8511 152° Southeast  Level Estimated
07:24PM 2.0946 -62.7892 152° Southeast  Level Estimated
07:25PM 1.9787 -62.7274 152° Southeast  Level Estimated
07:26PM 1.8628 -62.6655 152° Southeast  Level Estimated
07:27PM 1.7470 -62.6036 152° Southeast  Level Estimated
07:28PM 1.6311 -62.5418 152° Southeast  Level Estimated
07:29PM 1.5152 -62.4799 152° Southeast  Level Estimated
07:30PM 1.3993 -62.4181 152° Southeast  Level Estimated
07:31PM 1.2834 -62.3563 152° Southeast  Level Estimated
07:32PM 1.1675 -62.2944 152° Southeast  Level Estimated
07:33PM 1.0516 -62.2326 152° Southeast  Level Estimated
07:34PM 0.9357 -62.1708 152° Southeast  Level Estimated
07:35PM 0.8198 -62.1090 152° Southeast  Level Estimated
07:36PM 0.7039 -62.0471 152° Southeast  Level Estimated
07:37PM 0.5880 -61.9853 152° Southeast  Level Estimated
07:38PM 0.4721 -61.9235 152° Southeast  Level Estimated
07:39PM 0.3562 -61.8617 152° Southeast  Level Estimated
07:40PM 0.2403 -61.7999 152° Southeast  Level Estimated
07:41PM 0.1244 -61.7381 152° Southeast  Level Estimated
07:42PM 0.0085 -61.6763 152° Southeast  Level Estimated
07:43PM -0.1074 -61.6145 152° Southeast  Level Estimated
07:44PM -0.2233 -61.5527 152° Southeast  Level Estimated
07:45PM -0.3392 -61.4909 152° Southeast  Level Estimated
07:46PM -0.4551 -61.4291 152° Southeast  Level Estimated
07:47PM -0.5710 -61.3673 152° Southeast  Level Estimated
07:48PM -0.6869 -61.3055 152° Southeast  Level Estimated
07:49PM -0.8028 -61.2437 152° Southeast  Level Estimated
07:50PM -0.9187 -61.1819 152° Southeast  Level Estimated
07:51PM -1.0346 -61.1200 152° Southeast  Level Estimated
07:52PM -1.1505 -61.0582 152° Southeast  Level Estimated
07:53PM -1.2664 -60.9964 152° Southeast  Level Estimated
07:54PM -1.3823 -60.9345 152° Southeast  Level Estimated
07:55PM -1.4981 -60.8727 152° Southeast  Level Estimated
07:56PM -1.6140 -60.8108 152° Southeast  Level Estimated
07:57PM -1.7299 -60.7490 152° Southeast  Level Estimated
07:58PM -1.8458 -60.6871 152° Southeast  Level Estimated
07:59PM -1.9617 -60.6253 152° Southeast  Level Estimated
08:00PM -2.0776 -60.5634 152° Southeast  Level Estimated
08:01PM -2.1934 -60.5015 152° Southeast  Level Estimated
08:02PM -2.3093 -60.4396 152° Southeast  Level Estimated
08:03PM -2.4252 -60.3777 152° Southeast  Level Estimated
08:04PM -2.5411 -60.3158 152° Southeast  Level Estimated
08:05PM -2.6569 -60.2538 152° Southeast  Level Estimated
08:06PM -2.7728 -60.1919 152° Southeast  Level Estimated
08:07PM -2.8886 -60.1299 152° Southeast  Level Estimated
08:08PM -3.0045 -60.0680 152° Southeast  Level Estimated
08:09PM -3.0386 -60.0497 152° Southeast  Level Estimated
08:10PM -3.0386 -60.0497 225° Southwest  Level Estimated
08:11PM -3.0386 -60.0497 225° Southwest  Level Estimated
08:12PM -3.0386 -60.0497 225° Southwest  Level Estimated
08:13PM -3.0386 -60.0497 225° Southwest  Level Estimated
08:14PM -3.0386 -60.0497 225° Southwest  Level Estimated
08:15PM -3.0386 -60.0497 225° Southwest  Level Estimated
08:16PM -3.0386 -60.0497 225° Southwest  Level Estimated
08:17PM -3.0386 -60.0497 225° Southwest  Level Estimated
08:18PM -3.0386 -60.0497 225° Southwest  Level Estimated
08:19PM -3.0386 -60.0497 225° Southwest  Level Estimated
08:20PM -3.0386 -60.0497 225° Southwest  Level Estimated
08:21PM -3.0386 -60.0497 225° Southwest  Level Estimated
08:22PM -3.0386 -60.0497 225° Southwest  Level Estimated
08:23PM -3.0386 -60.0497 225° Southwest  Level Estimated